sensor_id;sensor_type;location;lat;lon;timestamp;P1;durP1;ratioP1;P2;durP2;ratioP2
6131;SDS011;3097;42.692;23.278;2023-06-22T00:02:13;33.43;;;22.60;;
6131;SDS011;3097;42.692;23.278;2023-06-22T00:04:39;33.07;;;21.93;;
6131;SDS011;3097;42.692;23.278;2023-06-22T00:07:05;30.13;;;21.00;;
6131;SDS011;3097;42.692;23.278;2023-06-22T00:09:30;30.27;;;21.30;;
6131;SDS011;3097;42.692;23.278;2023-06-22T00:11:56;31.90;;;21.43;;
6131;SDS011;3097;42.692;23.278;2023-06-22T00:14:22;29.90;;;20.63;;
6131;SDS011;3097;42.692;23.278;2023-06-22T00:16:47;28.93;;;21.07;;
6131;SDS011;3097;42.692;23.278;2023-06-22T00:19:14;29.20;;;21.20;;
6131;SDS011;3097;42.692;23.278;2023-06-22T00:21:44;29.47;;;21.50;;
6131;SDS011;3097;42.692;23.278;2023-06-22T00:24:12;29.03;;;20.33;;
6131;SDS011;3097;42.692;23.278;2023-06-22T00:26:37;31.40;;;20.83;;
6131;SDS011;3097;42.692;23.278;2023-06-22T00:29:03;27.53;;;19.30;;
6131;SDS011;3097;42.692;23.278;2023-06-22T00:31:28;29.77;;;19.27;;
6131;SDS011;3097;42.692;23.278;2023-06-22T00:33:54;26.67;;;18.77;;
6131;SDS011;3097;42.692;23.278;2023-06-22T00:36:19;25.60;;;19.40;;
6131;SDS011;3097;42.692;23.278;2023-06-22T00:38:44;22.23;;;18.37;;
6131;SDS011;3097;42.692;23.278;2023-06-22T00:41:10;30.30;;;19.67;;
6131;SDS011;3097;42.692;23.278;2023-06-22T00:43:35;23.83;;;18.37;;
6131;SDS011;3097;42.692;23.278;2023-06-22T00:46:01;24.20;;;17.87;;
6131;SDS011;3097;42.692;23.278;2023-06-22T00:48:26;24.57;;;17.73;;
6131;SDS011;3097;42.692;23.278;2023-06-22T00:50:52;22.93;;;17.27;;
6131;SDS011;3097;42.692;23.278;2023-06-22T00:53:20;22.10;;;16.07;;
6131;SDS011;3097;42.692;23.278;2023-06-22T00:55:46;18.03;;;14.37;;
6131;SDS011;3097;42.692;23.278;2023-06-22T00:58:13;18.43;;;14.90;;
6131;SDS011;3097;42.692;23.278;2023-06-22T01:00:39;19.37;;;14.77;;
6131;SDS011;3097;42.692;23.278;2023-06-22T01:03:06;16.30;;;12.90;;
6131;SDS011;3097;42.692;23.278;2023-06-22T01:05:35;17.00;;;13.10;;
6131;SDS011;3097;42.692;23.278;2023-06-22T01:10:46;16.20;;;13.30;;
6131;SDS011;3097;42.692;23.278;2023-06-22T01:18:37;18.20;;;13.77;;
6131;SDS011;3097;42.692;23.278;2023-06-22T01:21:06;18.80;;;12.53;;
6131;SDS011;3097;42.692;23.278;2023-06-22T01:29:30;13.87;;;11.80;;
6131;SDS011;3097;42.692;23.278;2023-06-22T01:31:57;13.83;;;11.43;;
6131;SDS011;3097;42.692;23.278;2023-06-22T01:34:26;14.20;;;11.50;;
6131;SDS011;3097;42.692;23.278;2023-06-22T01:36:54;14.97;;;11.97;;
6131;SDS011;3097;42.692;23.278;2023-06-22T01:39:20;13.17;;;11.30;;
6131;SDS011;3097;42.692;23.278;2023-06-22T01:41:47;13.67;;;10.83;;
6131;SDS011;3097;42.692;23.278;2023-06-22T01:44:13;15.17;;;12.03;;
6131;SDS011;3097;42.692;23.278;2023-06-22T01:46:38;16.27;;;12.00;;
6131;SDS011;3097;42.692;23.278;2023-06-22T01:49:04;15.33;;;12.00;;
6131;SDS011;3097;42.692;23.278;2023-06-22T01:51:31;13.90;;;11.27;;
6131;SDS011;3097;42.692;23.278;2023-06-22T01:53:57;12.50;;;11.20;;
6131;SDS011;3097;42.692;23.278;2023-06-22T01:56:22;15.80;;;11.87;;
6131;SDS011;3097;42.692;23.278;2023-06-22T01:58:50;14.50;;;11.90;;
6131;SDS011;3097;42.692;23.278;2023-06-22T02:01:22;13.90;;;11.10;;
6131;SDS011;3097;42.692;23.278;2023-06-22T02:03:55;15.43;;;11.73;;
6131;SDS011;3097;42.692;23.278;2023-06-22T02:06:30;15.97;;;11.70;;
6131;SDS011;3097;42.692;23.278;2023-06-22T02:09:01;15.60;;;11.60;;
6131;SDS011;3097;42.692;23.278;2023-06-22T02:11:28;16.37;;;13.13;;
6131;SDS011;3097;42.692;23.278;2023-06-22T02:13:55;18.30;;;13.40;;
6131;SDS011;3097;42.692;23.278;2023-06-22T02:16:23;20.57;;;14.13;;
6131;SDS011;3097;42.692;23.278;2023-06-22T02:18:49;15.70;;;13.50;;
6131;SDS011;3097;42.692;23.278;2023-06-22T02:21:18;14.30;;;12.80;;
6131;SDS011;3097;42.692;23.278;2023-06-22T02:23:44;17.73;;;13.23;;
6131;SDS011;3097;42.692;23.278;2023-06-22T02:26:10;20.03;;;13.87;;
6131;SDS011;3097;42.692;23.278;2023-06-22T02:28:35;18.40;;;14.10;;
6131;SDS011;3097;42.692;23.278;2023-06-22T02:31:01;19.33;;;13.97;;
6131;SDS011;3097;42.692;23.278;2023-06-22T02:33:26;19.37;;;14.03;;
6131;SDS011;3097;42.692;23.278;2023-06-22T02:35:52;18.13;;;13.90;;
6131;SDS011;3097;42.692;23.278;2023-06-22T02:38:18;17.90;;;13.10;;
6131;SDS011;3097;42.692;23.278;2023-06-22T02:40:44;17.30;;;13.50;;
6131;SDS011;3097;42.692;23.278;2023-06-22T02:43:10;16.70;;;13.93;;
6131;SDS011;3097;42.692;23.278;2023-06-22T02:45:35;17.93;;;14.13;;
6131;SDS011;3097;42.692;23.278;2023-06-22T02:48:01;23.00;;;13.20;;
6131;SDS011;3097;42.692;23.278;2023-06-22T02:50:26;17.97;;;13.77;;
6131;SDS011;3097;42.692;23.278;2023-06-22T02:52:52;17.13;;;14.23;;
6131;SDS011;3097;42.692;23.278;2023-06-22T02:55:17;18.57;;;14.00;;
6131;SDS011;3097;42.692;23.278;2023-06-22T02:57:43;17.93;;;13.67;;
6131;SDS011;3097;42.692;23.278;2023-06-22T03:00:12;21.33;;;13.63;;
6131;SDS011;3097;42.692;23.278;2023-06-22T03:02:45;16.80;;;13.60;;
6131;SDS011;3097;42.692;23.278;2023-06-22T03:05:11;19.97;;;14.17;;
6131;SDS011;3097;42.692;23.278;2023-06-22T03:07:46;20.57;;;14.20;;
6131;SDS011;3097;42.692;23.278;2023-06-22T03:10:12;17.53;;;14.00;;
6131;SDS011;3097;42.692;23.278;2023-06-22T03:12:38;20.73;;;14.13;;
6131;SDS011;3097;42.692;23.278;2023-06-22T03:15:12;20.40;;;13.60;;
6131;SDS011;3097;42.692;23.278;2023-06-22T03:17:39;20.83;;;14.03;;
6131;SDS011;3097;42.692;23.278;2023-06-22T03:20:05;21.57;;;14.83;;
6131;SDS011;3097;42.692;23.278;2023-06-22T03:22:34;19.83;;;14.83;;
6131;SDS011;3097;42.692;23.278;2023-06-22T03:25:00;26.97;;;14.30;;
6131;SDS011;3097;42.692;23.278;2023-06-22T03:27:26;21.60;;;15.10;;
6131;SDS011;3097;42.692;23.278;2023-06-22T03:29:52;22.27;;;14.03;;
6131;SDS011;3097;42.692;23.278;2023-06-22T03:32:17;22.27;;;14.80;;
6131;SDS011;3097;42.692;23.278;2023-06-22T03:34:42;18.93;;;13.67;;
6131;SDS011;3097;42.692;23.278;2023-06-22T03:37:12;17.63;;;14.13;;
6131;SDS011;3097;42.692;23.278;2023-06-22T03:39:40;21.63;;;14.07;;
6131;SDS011;3097;42.692;23.278;2023-06-22T03:42:06;16.03;;;13.30;;
6131;SDS011;3097;42.692;23.278;2023-06-22T03:44:31;16.60;;;12.67;;
6131;SDS011;3097;42.692;23.278;2023-06-22T03:46:57;18.37;;;12.73;;
6131;SDS011;3097;42.692;23.278;2023-06-22T03:49:22;17.10;;;12.37;;
6131;SDS011;3097;42.692;23.278;2023-06-22T03:51:47;13.27;;;11.77;;
6131;SDS011;3097;42.692;23.278;2023-06-22T03:54:13;14.20;;;11.97;;
6131;SDS011;3097;42.692;23.278;2023-06-22T03:56:38;21.77;;;12.50;;
6131;SDS011;3097;42.692;23.278;2023-06-22T03:59:04;16.10;;;12.50;;
6131;SDS011;3097;42.692;23.278;2023-06-22T04:01:29;18.60;;;12.50;;
6131;SDS011;3097;42.692;23.278;2023-06-22T04:03:54;14.63;;;11.80;;
6131;SDS011;3097;42.692;23.278;2023-06-22T04:06:20;13.13;;;11.17;;
6131;SDS011;3097;42.692;23.278;2023-06-22T04:08:45;19.07;;;12.53;;
6131;SDS011;3097;42.692;23.278;2023-06-22T04:11:15;15.23;;;12.43;;
6131;SDS011;3097;42.692;23.278;2023-06-22T04:13:42;15.83;;;12.57;;
6131;SDS011;3097;42.692;23.278;2023-06-22T04:16:08;13.27;;;11.87;;
6131;SDS011;3097;42.692;23.278;2023-06-22T04:18:33;15.23;;;12.07;;
6131;SDS011;3097;42.692;23.278;2023-06-22T04:20:59;14.03;;;11.40;;
6131;SDS011;3097;42.692;23.278;2023-06-22T04:23:24;17.27;;;11.97;;
6131;SDS011;3097;42.692;23.278;2023-06-22T04:25:49;14.50;;;12.37;;
6131;SDS011;3097;42.692;23.278;2023-06-22T04:28:16;17.07;;;12.33;;
6131;SDS011;3097;42.692;23.278;2023-06-22T04:30:41;16.07;;;13.00;;
6131;SDS011;3097;42.692;23.278;2023-06-22T04:33:14;13.30;;;11.90;;
6131;SDS011;3097;42.692;23.278;2023-06-22T04:35:40;17.77;;;11.63;;
6131;SDS011;3097;42.692;23.278;2023-06-22T04:38:07;14.40;;;11.90;;
6131;SDS011;3097;42.692;23.278;2023-06-22T04:40:32;18.20;;;12.37;;
6131;SDS011;3097;42.692;23.278;2023-06-22T04:42:58;13.23;;;11.80;;
6131;SDS011;3097;42.692;23.278;2023-06-22T04:45:27;13.03;;;11.63;;
6131;SDS011;3097;42.692;23.278;2023-06-22T04:47:52;16.00;;;11.37;;
6131;SDS011;3097;42.692;23.278;2023-06-22T04:50:18;13.13;;;11.83;;
6131;SDS011;3097;42.692;23.278;2023-06-22T04:52:46;13.60;;;11.57;;
6131;SDS011;3097;42.692;23.278;2023-06-22T04:55:11;11.87;;;10.67;;
6131;SDS011;3097;42.692;23.278;2023-06-22T04:57:37;16.73;;;12.13;;
6131;SDS011;3097;42.692;23.278;2023-06-22T05:00:04;14.90;;;11.27;;
6131;SDS011;3097;42.692;23.278;2023-06-22T05:02:40;16.47;;;11.43;;
6131;SDS011;3097;42.692;23.278;2023-06-22T05:05:06;12.63;;;11.37;;
6131;SDS011;3097;42.692;23.278;2023-06-22T05:07:34;15.67;;;12.87;;
6131;SDS011;3097;42.692;23.278;2023-06-22T05:10:03;15.30;;;12.23;;
6131;SDS011;3097;42.692;23.278;2023-06-22T05:12:29;14.93;;;12.23;;
6131;SDS011;3097;42.692;23.278;2023-06-22T05:14:55;14.53;;;13.13;;
6131;SDS011;3097;42.692;23.278;2023-06-22T05:17:21;14.53;;;12.93;;
6131;SDS011;3097;42.692;23.278;2023-06-22T05:19:46;13.80;;;12.27;;
6131;SDS011;3097;42.692;23.278;2023-06-22T05:22:15;17.98;;;13.32;;
6131;SDS011;3097;42.692;23.278;2023-06-22T05:24:41;18.38;;;13.23;;
6131;SDS011;3097;42.692;23.278;2023-06-22T05:27:07;16.50;;;13.95;;
6131;SDS011;3097;42.692;23.278;2023-06-22T05:29:33;14.43;;;13.00;;
6131;SDS011;3097;42.692;23.278;2023-06-22T05:31:59;17.15;;;13.20;;
6131;SDS011;3097;42.692;23.278;2023-06-22T05:34:24;14.38;;;12.93;;
6131;SDS011;3097;42.692;23.278;2023-06-22T05:36:52;15.70;;;12.95;;
6131;SDS011;3097;42.692;23.278;2023-06-22T05:39:17;14.52;;;11.10;;
6131;SDS011;3097;42.692;23.278;2023-06-22T05:41:44;11.85;;;10.85;;
6131;SDS011;3097;42.692;23.278;2023-06-22T05:44:10;12.48;;;11.48;;
6131;SDS011;3097;42.692;23.278;2023-06-22T05:46:35;13.43;;;11.07;;
6131;SDS011;3097;42.692;23.278;2023-06-22T05:49:01;13.45;;;11.80;;
6131;SDS011;3097;42.692;23.278;2023-06-22T05:51:26;14.77;;;12.93;;
6131;SDS011;3097;42.692;23.278;2023-06-22T05:53:51;12.82;;;11.68;;
6131;SDS011;3097;42.692;23.278;2023-06-22T05:56:17;14.38;;;12.45;;
6131;SDS011;3097;42.692;23.278;2023-06-22T05:58:42;14.25;;;13.05;;
6131;SDS011;3097;42.692;23.278;2023-06-22T06:01:08;16.80;;;15.20;;
6131;SDS011;3097;42.692;23.278;2023-06-22T06:03:33;14.48;;;13.25;;
6131;SDS011;3097;42.692;23.278;2023-06-22T06:05:59;13.57;;;12.38;;
6131;SDS011;3097;42.692;23.278;2023-06-22T06:08:24;13.60;;;12.20;;
6131;SDS011;3097;42.692;23.278;2023-06-22T06:10:50;63.10;;;16.10;;
6131;SDS011;3097;42.692;23.278;2023-06-22T06:13:18;25.80;;;12.93;;
6131;SDS011;3097;42.692;23.278;2023-06-22T06:15:43;20.65;;;18.45;;
6131;SDS011;3097;42.692;23.278;2023-06-22T06:18:09;24.83;;;22.10;;
6131;SDS011;3097;42.692;23.278;2023-06-22T06:20:34;18.02;;;12.55;;
6131;SDS011;3097;42.692;23.278;2023-06-22T06:23:00;14.57;;;12.40;;
6131;SDS011;3097;42.692;23.278;2023-06-22T06:25:26;14.65;;;13.18;;
6131;SDS011;3097;42.692;23.278;2023-06-22T06:27:52;13.10;;;11.93;;
6131;SDS011;3097;42.692;23.278;2023-06-22T06:30:19;12.82;;;11.55;;
6131;SDS011;3097;42.692;23.278;2023-06-22T06:32:46;13.50;;;12.15;;
6131;SDS011;3097;42.692;23.278;2023-06-22T06:35:13;13.80;;;11.80;;
6131;SDS011;3097;42.692;23.278;2023-06-22T06:37:41;12.93;;;11.82;;
6131;SDS011;3097;42.692;23.278;2023-06-22T06:40:08;13.07;;;11.93;;
6131;SDS011;3097;42.692;23.278;2023-06-22T06:42:38;13.73;;;12.48;;
6131;SDS011;3097;42.692;23.278;2023-06-22T06:45:07;14.07;;;12.02;;
6131;SDS011;3097;42.692;23.278;2023-06-22T06:47:33;16.58;;;12.18;;
6131;SDS011;3097;42.692;23.278;2023-06-22T06:49:58;19.55;;;12.25;;
6131;SDS011;3097;42.692;23.278;2023-06-22T06:52:24;21.38;;;14.07;;
6131;SDS011;3097;42.692;23.278;2023-06-22T06:54:50;16.58;;;12.35;;
6131;SDS011;3097;42.692;23.278;2023-06-22T06:57:17;12.63;;;11.43;;
6131;SDS011;3097;42.692;23.278;2023-06-22T06:59:43;16.90;;;12.43;;
6131;SDS011;3097;42.692;23.278;2023-06-22T07:02:08;15.95;;;12.18;;
6131;SDS011;3097;42.692;23.278;2023-06-22T07:04:34;13.52;;;12.10;;
6131;SDS011;3097;42.692;23.278;2023-06-22T07:07:00;12.23;;;11.00;;
6131;SDS011;3097;42.692;23.278;2023-06-22T07:09:27;13.05;;;11.85;;
6131;SDS011;3097;42.692;23.278;2023-06-22T07:11:52;13.85;;;11.75;;
6131;SDS011;3097;42.692;23.278;2023-06-22T07:14:18;17.45;;;12.30;;
6131;SDS011;3097;42.692;23.278;2023-06-22T07:16:43;17.58;;;12.73;;
6131;SDS011;3097;42.692;23.278;2023-06-22T07:19:10;12.98;;;11.68;;
6131;SDS011;3097;42.692;23.278;2023-06-22T07:21:36;13.40;;;11.65;;
6131;SDS011;3097;42.692;23.278;2023-06-22T07:24:02;14.23;;;12.07;;
6131;SDS011;3097;42.692;23.278;2023-06-22T07:26:27;14.27;;;11.93;;
6131;SDS011;3097;42.692;23.278;2023-06-22T07:28:53;13.15;;;11.85;;
6131;SDS011;3097;42.692;23.278;2023-06-22T07:31:19;17.02;;;12.52;;
6131;SDS011;3097;42.692;23.278;2023-06-22T07:33:44;13.13;;;11.82;;
6131;SDS011;3097;42.692;23.278;2023-06-22T07:36:09;13.15;;;11.82;;
6131;SDS011;3097;42.692;23.278;2023-06-22T07:38:35;13.60;;;12.32;;
6131;SDS011;3097;42.692;23.278;2023-06-22T07:41:00;13.43;;;11.93;;
6131;SDS011;3097;42.692;23.278;2023-06-22T07:43:26;13.85;;;12.43;;
6131;SDS011;3097;42.692;23.278;2023-06-22T07:45:51;15.10;;;12.35;;
6131;SDS011;3097;42.692;23.278;2023-06-22T07:48:19;13.65;;;11.85;;
6131;SDS011;3097;42.692;23.278;2023-06-22T07:50:46;12.90;;;11.50;;
6131;SDS011;3097;42.692;23.278;2023-06-22T07:53:11;13.80;;;11.00;;
6131;SDS011;3097;42.692;23.278;2023-06-22T07:55:37;13.63;;;11.45;;
6131;SDS011;3097;42.692;23.278;2023-06-22T07:58:02;12.52;;;11.43;;
6131;SDS011;3097;42.692;23.278;2023-06-22T08:00:28;14.45;;;13.05;;
6131;SDS011;3097;42.692;23.278;2023-06-22T08:02:53;13.27;;;11.90;;
6131;SDS011;3097;42.692;23.278;2023-06-22T08:05:19;13.60;;;12.50;;
6131;SDS011;3097;42.692;23.278;2023-06-22T08:07:44;13.80;;;12.32;;
6131;SDS011;3097;42.692;23.278;2023-06-22T08:10:10;13.35;;;12.02;;
6131;SDS011;3097;42.692;23.278;2023-06-22T08:12:37;12.93;;;11.82;;
6131;SDS011;3097;42.692;23.278;2023-06-22T08:15:03;13.13;;;11.93;;
6131;SDS011;3097;42.692;23.278;2023-06-22T08:17:29;13.90;;;12.38;;
6131;SDS011;3097;42.692;23.278;2023-06-22T08:19:56;13.85;;;12.55;;
6131;SDS011;3097;42.692;23.278;2023-06-22T08:22:21;13.70;;;12.30;;
6131;SDS011;3097;42.692;23.278;2023-06-22T08:24:47;13.23;;;11.88;;
6131;SDS011;3097;42.692;23.278;2023-06-22T08:27:12;12.90;;;11.80;;
6131;SDS011;3097;42.692;23.278;2023-06-22T08:29:38;24.42;;;13.00;;
6131;SDS011;3097;42.692;23.278;2023-06-22T08:32:04;15.60;;;12.25;;
6131;SDS011;3097;42.692;23.278;2023-06-22T08:34:30;12.48;;;11.38;;
6131;SDS011;3097;42.692;23.278;2023-06-22T08:36:55;13.93;;;11.57;;
6131;SDS011;3097;42.692;23.278;2023-06-22T08:39:21;13.13;;;12.02;;
6131;SDS011;3097;42.692;23.278;2023-06-22T08:41:47;12.45;;;11.38;;
6131;SDS011;3097;42.692;23.278;2023-06-22T08:44:13;16.20;;;12.15;;
6131;SDS011;3097;42.692;23.278;2023-06-22T08:46:39;12.73;;;11.43;;
6131;SDS011;3097;42.692;23.278;2023-06-22T08:49:06;17.42;;;11.90;;
6131;SDS011;3097;42.692;23.278;2023-06-22T08:51:32;14.30;;;11.20;;
6131;SDS011;3097;42.692;23.278;2023-06-22T08:53:57;29.27;;;11.48;;
6131;SDS011;3097;42.692;23.278;2023-06-22T08:56:22;11.85;;;10.77;;
6131;SDS011;3097;42.692;23.278;2023-06-22T08:58:48;10.90;;;10.00;;
6131;SDS011;3097;42.692;23.278;2023-06-22T09:01:13;11.93;;;10.88;;
6131;SDS011;3097;42.692;23.278;2023-06-22T09:03:40;10.65;;;9.82;;
6131;SDS011;3097;42.692;23.278;2023-06-22T09:06:06;11.85;;;10.85;;
6131;SDS011;3097;42.692;23.278;2023-06-22T09:08:34;12.48;;;11.25;;
6131;SDS011;3097;42.692;23.278;2023-06-22T09:11:02;11.30;;;10.45;;
6131;SDS011;3097;42.692;23.278;2023-06-22T09:13:29;11.65;;;10.65;;
6131;SDS011;3097;42.692;23.278;2023-06-22T09:15:56;11.93;;;10.82;;
6131;SDS011;3097;42.692;23.278;2023-06-22T09:18:22;11.40;;;10.57;;
6131;SDS011;3097;42.692;23.278;2023-06-22T09:20:47;13.43;;;11.27;;
6131;SDS011;3097;42.692;23.278;2023-06-22T09:23:13;16.25;;;12.40;;
6131;SDS011;3097;42.692;23.278;2023-06-22T09:25:39;13.38;;;12.02;;
6131;SDS011;3097;42.692;23.278;2023-06-22T09:28:06;11.45;;;10.40;;
6131;SDS011;3097;42.692;23.278;2023-06-22T09:30:31;12.82;;;11.48;;
6131;SDS011;3097;42.692;23.278;2023-06-22T09:32:57;11.80;;;10.80;;
6131;SDS011;3097;42.692;23.278;2023-06-22T09:35:22;11.55;;;10.55;;
6131;SDS011;3097;42.692;23.278;2023-06-22T09:37:47;11.45;;;10.35;;
6131;SDS011;3097;42.692;23.278;2023-06-22T09:40:13;11.27;;;10.27;;
6131;SDS011;3097;42.692;23.278;2023-06-22T09:42:41;12.23;;;11.05;;
6131;SDS011;3097;42.692;23.278;2023-06-22T09:45:06;11.90;;;10.90;;
6131;SDS011;3097;42.692;23.278;2023-06-22T09:47:32;12.05;;;10.90;;
6131;SDS011;3097;42.692;23.278;2023-06-22T09:49:57;12.00;;;10.90;;
6131;SDS011;3097;42.692;23.278;2023-06-22T09:52:24;12.60;;;11.02;;
6131;SDS011;3097;42.692;23.278;2023-06-22T09:54:50;12.90;;;11.13;;
6131;SDS011;3097;42.692;23.278;2023-06-22T09:57:15;12.00;;;10.85;;
6131;SDS011;3097;42.692;23.278;2023-06-22T09:59:41;12.32;;;11.32;;
6131;SDS011;3097;42.692;23.278;2023-06-22T10:02:06;12.07;;;11.07;;
6131;SDS011;3097;42.692;23.278;2023-06-22T10:04:33;12.13;;;11.13;;
6131;SDS011;3097;42.692;23.278;2023-06-22T10:06:59;12.63;;;11.43;;
6131;SDS011;3097;42.692;23.278;2023-06-22T10:09:24;13.23;;;12.13;;
6131;SDS011;3097;42.692;23.278;2023-06-22T10:11:50;13.55;;;11.65;;
6131;SDS011;3097;42.692;23.278;2023-06-22T10:14:15;12.07;;;11.07;;
6131;SDS011;3097;42.692;23.278;2023-06-22T10:16:41;13.80;;;12.38;;
6131;SDS011;3097;42.692;23.278;2023-06-22T10:19:07;13.85;;;12.45;;
6131;SDS011;3097;42.692;23.278;2023-06-22T10:21:32;12.95;;;11.40;;
6131;SDS011;3097;42.692;23.278;2023-06-22T10:23:58;11.40;;;10.40;;
6131;SDS011;3097;42.692;23.278;2023-06-22T10:26:26;12.30;;;11.20;;
6131;SDS011;3097;42.692;23.278;2023-06-22T10:28:54;12.60;;;11.40;;
6131;SDS011;3097;42.692;23.278;2023-06-22T10:31:19;13.80;;;11.10;;
6131;SDS011;3097;42.692;23.278;2023-06-22T10:33:44;13.38;;;11.48;;
6131;SDS011;3097;42.692;23.278;2023-06-22T10:36:10;11.52;;;10.50;;
6131;SDS011;3097;42.692;23.278;2023-06-22T10:38:36;11.73;;;10.68;;
6131;SDS011;3097;42.692;23.278;2023-06-22T10:41:01;11.50;;;10.52;;
6131;SDS011;3097;42.692;23.278;2023-06-22T10:43:27;15.57;;;10.75;;
6131;SDS011;3097;42.692;23.278;2023-06-22T10:45:53;10.80;;;10.00;;
6131;SDS011;3097;42.692;23.278;2023-06-22T10:48:18;11.18;;;10.18;;
6131;SDS011;3097;42.692;23.278;2023-06-22T10:50:43;11.70;;;10.52;;
6131;SDS011;3097;42.692;23.278;2023-06-22T10:53:09;12.63;;;11.52;;
6131;SDS011;3097;42.692;23.278;2023-06-22T10:55:34;32.90;;;24.42;;
6131;SDS011;3097;42.692;23.278;2023-06-22T10:57:59;14.43;;;12.35;;
6131;SDS011;3097;42.692;23.278;2023-06-22T11:00:25;12.43;;;11.27;;
6131;SDS011;3097;42.692;23.278;2023-06-22T11:02:50;11.38;;;10.45;;
6131;SDS011;3097;42.692;23.278;2023-06-22T11:05:16;11.32;;;10.23;;
6131;SDS011;3097;42.692;23.278;2023-06-22T11:07:42;11.27;;;10.38;;
6131;SDS011;3097;42.692;23.278;2023-06-22T11:10:08;11.75;;;10.75;;
6131;SDS011;3097;42.692;23.278;2023-06-22T11:12:34;15.10;;;10.52;;
6131;SDS011;3097;42.692;23.278;2023-06-22T11:14:59;12.05;;;10.95;;
6131;SDS011;3097;42.692;23.278;2023-06-22T11:17:25;11.48;;;10.38;;
6131;SDS011;3097;42.692;23.278;2023-06-22T11:19:50;13.90;;;10.60;;
6131;SDS011;3097;42.692;23.278;2023-06-22T11:22:16;11.85;;;10.65;;
6131;SDS011;3097;42.692;23.278;2023-06-22T11:24:41;12.07;;;10.98;;
6131;SDS011;3097;42.692;23.278;2023-06-22T11:27:06;26.77;;;12.43;;
6131;SDS011;3097;42.692;23.278;2023-06-22T11:29:32;11.00;;;9.85;;
6131;SDS011;3097;42.692;23.278;2023-06-22T11:31:57;14.98;;;11.07;;
6131;SDS011;3097;42.692;23.278;2023-06-22T11:34:23;15.40;;;11.25;;
6131;SDS011;3097;42.692;23.278;2023-06-22T11:36:48;11.52;;;10.52;;
6131;SDS011;3097;42.692;23.278;2023-06-22T11:39:13;12.07;;;10.77;;
6131;SDS011;3097;42.692;23.278;2023-06-22T11:41:40;13.65;;;12.25;;
6131;SDS011;3097;42.692;23.278;2023-06-22T11:44:06;12.90;;;11.65;;
6131;SDS011;3097;42.692;23.278;2023-06-22T11:46:32;13.18;;;11.80;;
6131;SDS011;3097;42.692;23.278;2023-06-22T11:48:58;12.02;;;11.00;;
6131;SDS011;3097;42.692;23.278;2023-06-22T11:51:23;13.20;;;11.70;;
6131;SDS011;3097;42.692;23.278;2023-06-22T11:53:48;12.68;;;11.43;;
6131;SDS011;3097;42.692;23.278;2023-06-22T11:56:14;11.95;;;10.45;;
6131;SDS011;3097;42.692;23.278;2023-06-22T11:58:39;11.95;;;10.82;;
6131;SDS011;3097;42.692;23.278;2023-06-22T12:01:05;11.70;;;10.70;;
6131;SDS011;3097;42.692;23.278;2023-06-22T12:03:30;11.57;;;10.57;;
6131;SDS011;3097;42.692;23.278;2023-06-22T12:05:55;11.43;;;10.43;;
6131;SDS011;3097;42.692;23.278;2023-06-22T12:08:21;18.20;;;13.40;;
6131;SDS011;3097;42.692;23.278;2023-06-22T12:10:47;14.50;;;13.10;;
6131;SDS011;3097;42.692;23.278;2023-06-22T12:13:12;16.65;;;12.18;;
6131;SDS011;3097;42.692;23.278;2023-06-22T12:15:38;17.65;;;11.50;;
6131;SDS011;3097;42.692;23.278;2023-06-22T12:18:03;15.30;;;11.90;;
6131;SDS011;3097;42.692;23.278;2023-06-22T12:20:29;19.60;;;14.02;;
6131;SDS011;3097;42.692;23.278;2023-06-22T12:22:54;12.27;;;11.13;;
6131;SDS011;3097;42.692;23.278;2023-06-22T12:25:21;13.05;;;11.85;;
6131;SDS011;3097;42.692;23.278;2023-06-22T12:27:47;14.75;;;12.65;;
6131;SDS011;3097;42.692;23.278;2023-06-22T12:30:13;14.13;;;12.05;;
6131;SDS011;3097;42.692;23.278;2023-06-22T12:32:38;14.98;;;11.05;;
6131;SDS011;3097;42.692;23.278;2023-06-22T12:35:03;12.10;;;10.63;;
6131;SDS011;3097;42.692;23.278;2023-06-22T12:37:29;12.73;;;10.03;;
6131;SDS011;3097;42.692;23.278;2023-06-22T12:39:56;14.37;;;9.07;;
6131;SDS011;3097;42.692;23.278;2023-06-22T12:42:22;13.03;;;8.30;;
6131;SDS011;3097;42.692;23.278;2023-06-22T12:44:47;10.23;;;8.40;;
6131;SDS011;3097;42.692;23.278;2023-06-22T12:47:13;11.20;;;7.80;;
6131;SDS011;3097;42.692;23.278;2023-06-22T12:49:38;10.93;;;6.67;;
6131;SDS011;3097;42.692;23.278;2023-06-22T12:52:13;7.83;;;6.97;;
6131;SDS011;3097;42.692;23.278;2023-06-22T12:54:38;10.53;;;7.27;;
6131;SDS011;3097;42.692;23.278;2023-06-22T12:57:04;8.27;;;7.13;;
6131;SDS011;3097;42.692;23.278;2023-06-22T12:59:30;12.20;;;8.10;;
6131;SDS011;3097;42.692;23.278;2023-06-22T13:01:55;11.27;;;7.93;;
6131;SDS011;3097;42.692;23.278;2023-06-22T13:04:21;14.53;;;10.17;;
6131;SDS011;3097;42.692;23.278;2023-06-22T13:06:47;8.80;;;7.93;;
6131;SDS011;3097;42.692;23.278;2023-06-22T13:09:17;10.43;;;8.20;;
6131;SDS011;3097;42.692;23.278;2023-06-22T13:11:43;10.33;;;8.73;;
6131;SDS011;3097;42.692;23.278;2023-06-22T13:14:09;12.63;;;8.97;;
6131;SDS011;3097;42.692;23.278;2023-06-22T13:16:34;11.30;;;8.77;;
6131;SDS011;3097;42.692;23.278;2023-06-22T13:18:59;12.20;;;9.03;;
6131;SDS011;3097;42.692;23.278;2023-06-22T13:21:25;10.70;;;8.10;;
6131;SDS011;3097;42.692;23.278;2023-06-22T13:23:51;9.37;;;8.30;;
6131;SDS011;3097;42.692;23.278;2023-06-22T13:26:16;8.53;;;7.63;;
6131;SDS011;3097;42.692;23.278;2023-06-22T13:28:42;10.03;;;8.80;;
6131;SDS011;3097;42.692;23.278;2023-06-22T13:31:07;9.30;;;8.50;;
6131;SDS011;3097;42.692;23.278;2023-06-22T13:33:32;10.40;;;8.37;;
6131;SDS011;3097;42.692;23.278;2023-06-22T13:35:58;12.60;;;8.33;;
6131;SDS011;3097;42.692;23.278;2023-06-22T13:38:23;11.70;;;8.50;;
6131;SDS011;3097;42.692;23.278;2023-06-22T13:40:49;9.70;;;8.70;;
6131;SDS011;3097;42.692;23.278;2023-06-22T13:43:15;9.77;;;8.77;;
6131;SDS011;3097;42.692;23.278;2023-06-22T13:45:41;11.03;;;9.17;;
6131;SDS011;3097;42.692;23.278;2023-06-22T13:48:10;11.10;;;9.80;;
6131;SDS011;3097;42.692;23.278;2023-06-22T13:50:35;15.93;;;11.13;;
6131;SDS011;3097;42.692;23.278;2023-06-22T13:53:01;12.63;;;10.60;;
6131;SDS011;3097;42.692;23.278;2023-06-22T13:55:26;15.10;;;12.17;;
6131;SDS011;3097;42.692;23.278;2023-06-22T13:57:52;18.33;;;14.70;;
6131;SDS011;3097;42.692;23.278;2023-06-22T14:00:18;19.63;;;14.03;;
6131;SDS011;3097;42.692;23.278;2023-06-22T14:02:44;14.10;;;11.60;;
6131;SDS011;3097;42.692;23.278;2023-06-22T14:05:09;11.47;;;10.37;;
6131;SDS011;3097;42.692;23.278;2023-06-22T14:07:36;11.40;;;10.30;;
6131;SDS011;3097;42.692;23.278;2023-06-22T14:10:02;11.83;;;10.67;;
6131;SDS011;3097;42.692;23.278;2023-06-22T14:12:28;11.33;;;10.00;;
6131;SDS011;3097;42.692;23.278;2023-06-22T14:14:53;11.37;;;10.00;;
6131;SDS011;3097;42.692;23.278;2023-06-22T14:17:19;16.80;;;10.30;;
6131;SDS011;3097;42.692;23.278;2023-06-22T14:19:49;11.03;;;9.97;;
6131;SDS011;3097;42.692;23.278;2023-06-22T14:22:15;12.07;;;9.87;;
6131;SDS011;3097;42.692;23.278;2023-06-22T14:24:41;14.23;;;11.63;;
6131;SDS011;3097;42.692;23.278;2023-06-22T14:27:06;13.20;;;10.93;;
6131;SDS011;3097;42.692;23.278;2023-06-22T14:29:33;18.00;;;12.90;;
6131;SDS011;3097;42.692;23.278;2023-06-22T14:31:59;13.27;;;11.30;;
6131;SDS011;3097;42.692;23.278;2023-06-22T14:34:24;17.60;;;12.67;;
6131;SDS011;3097;42.692;23.278;2023-06-22T14:36:50;22.23;;;15.63;;
6131;SDS011;3097;42.692;23.278;2023-06-22T14:39:15;28.03;;;20.00;;
6131;SDS011;3097;42.692;23.278;2023-06-22T14:41:41;21.33;;;16.10;;
6131;SDS011;3097;42.692;23.278;2023-06-22T14:44:06;18.03;;;14.07;;